This is the latest recevied weather packets stored in our database for station/object EMGATE. If no packets are shown the sender has not sent any weather packets the latest 1 day(s).
| Time | Temp. | Humidity | Pressure | Rain* | Wind** | Luminosity | Snow |
|---|---|---|---|---|---|---|---|
| 1778030353 | 13.33° C | 67% | 1003.9 hPa | 0 mm | 1.34 m/s, 276° | - | - |
| 1778029453 | 13.89° C | 63% | 1003.5 hPa | 0 mm | 1.34 m/s, 264° | - | - |
| 1778028553 | 14.44° C | 62% | 1002.9 hPa | 0 mm | 1.34 m/s, 220° | - | - |
| 1778027653 | 14.44° C | 62% | 1003 hPa | 0 mm | 2.24 m/s, 226° | - | - |
| 1778026753 | 15° C | 61% | 1003 hPa | 0 mm | 2.68 m/s, 296° | - | - |
| 1778025853 | 15° C | 64% | 1002.9 hPa | 0 mm | 2.68 m/s, 274° | - | - |
| 1778024953 | 15.56° C | 66% | 1002.4 hPa | 0 mm | 1.34 m/s, 283° | - | - |
| 1778024053 | 15.56° C | 64% | 1002.1 hPa | 0 mm | 1.34 m/s, 274° | - | - |
| 1778023153 | 15.56° C | 63% | 1001.7 hPa | 0 mm | 1.34 m/s, 285° | - | - |
| 1778022262 | 16.11° C | 63% | 1001.6 hPa | 0 mm | 1.79 m/s, 285° | - | - |
| 1778021353 | 16.11° C | 63% | 1001.7 hPa | 0 mm | 2.68 m/s, 282° | - | - |
| 1778020453 | 16.11° C | 65% | 1001 hPa | 0 mm | 2.68 m/s, 269° | - | - |
| 1778019553 | 16.11° C | 68% | 1000.8 hPa | 0 mm | 2.68 m/s, 270° | - | - |
| 1778018653 | 16.11° C | 70% | 1000.5 hPa | 0 mm | 0.89 m/s, 251° | - | - |
| 1778017753 | 16.67° C | 70% | 1000.3 hPa | 0 mm | 2.24 m/s, 252° | - | - |
| 1778016853 | 16.11° C | 71% | 1000.2 hPa | 0 mm | 2.24 m/s, 277° | - | - |
| 1778015953 | 16.11° C | 71% | 999.9 hPa | 0 mm | 2.24 m/s, 259° | - | - |
| 1778015053 | 16.11° C | 72% | 999.4 hPa | 0 mm | 2.68 m/s, 235° | - | - |
| 1778014153 | 16.11° C | 71% | 999.2 hPa | 0 mm | 2.68 m/s, 287° | - | - |
| 1778013253 | 17.78° C | 69% | 999 hPa | 0 mm | 5.36 m/s, 330° | - | - |
| 1778012353 | 19.44° C | 60% | 998.2 hPa | 0 mm | 3.58 m/s, 233° | - | - |
| 1778011453 | 20° C | 59% | 998 hPa | 0 mm | 3.58 m/s, 207° | - | - |
| 1778010553 | 20° C | 59% | 997.8 hPa | 0 mm | 3.58 m/s, 221° | - | - |
| 1778009653 | 20.56° C | 57% | 997.6 hPa | 0 mm | 4.02 m/s, 240° | - | - |
| 1778008753 | 21.11° C | 58% | 997.6 hPa | 0 mm | 4.02 m/s, 270° | - | - |
* Rain latest hour (hover to see other rain measurements)
** Current wind speed in m/s (hover to see current wind gust speed)